createdAt,value
2022-10-23T00:00:52.651Z,905.14
2022-10-23T00:01:56.303Z,906.15
2022-10-23T00:02:52.570Z,906.72
2022-10-23T00:03:52.512Z,907.62
2022-10-23T00:04:52.494Z,908.45
2022-10-23T00:05:52.511Z,908.40
2022-10-23T00:06:52.462Z,908.31
2022-10-23T00:07:52.472Z,908.56
2022-10-23T00:08:52.453Z,908.53
2022-10-23T00:09:52.432Z,908.69
2022-10-23T00:10:52.454Z,910.18
2022-10-23T00:11:52.433Z,911.26
2022-10-23T00:12:52.415Z,911.44
2022-10-23T00:13:52.385Z,911.53
2022-10-23T00:14:52.400Z,910.40
2022-10-23T00:16:52.354Z,910.55
2022-10-23T00:17:52.356Z,910.57
2022-10-23T00:18:52.356Z,910.16
2022-10-23T00:19:52.563Z,910.13
2022-10-23T00:20:52.350Z,911.34
2022-10-23T00:21:52.315Z,911.82
2022-10-23T00:22:52.298Z,912.47
2022-10-23T00:23:52.278Z,912.98
2022-10-23T00:24:52.290Z,914.05
2022-10-23T00:25:52.266Z,914.29
2022-10-23T00:26:52.247Z,914.92
2022-10-23T00:27:52.244Z,915.00
2022-10-23T00:28:52.238Z,914.65
2022-10-23T00:29:52.218Z,915.13
2022-10-23T00:30:52.225Z,915.51
2022-10-23T00:31:52.220Z,916.24
2022-10-23T00:32:52.177Z,916.67
2022-10-23T00:33:52.168Z,916.98
2022-10-23T00:34:52.459Z,916.91
2022-10-23T00:35:52.167Z,917.03
2022-10-23T00:36:52.139Z,917.21
2022-10-23T00:37:52.151Z,917.82
2022-10-23T00:38:52.131Z,918.64
2022-10-23T00:39:52.109Z,919.06
2022-10-23T00:40:52.120Z,918.90
2022-10-23T00:41:52.097Z,919.04
2022-10-23T00:42:52.080Z,919.28
2022-10-23T00:43:52.068Z,919.50
2022-10-23T00:44:52.072Z,919.77
2022-10-23T00:45:52.058Z,920.47
2022-10-23T00:46:52.028Z,921.47
2022-10-23T00:47:52.018Z,921.47
2022-10-23T00:48:52.028Z,921.67
2022-10-23T00:49:52.249Z,921.95
2022-10-23T00:50:51.996Z,922.38
2022-10-23T00:51:51.997Z,923.17
2022-10-23T00:52:51.977Z,923.19
2022-10-23T00:54:01.172Z,923.18
2022-10-23T00:54:53.209Z,923.20
2022-10-23T00:55:51.938Z,923.45
2022-10-23T00:56:51.949Z,923.07
2022-10-23T00:57:51.928Z,923.63
2022-10-23T00:58:51.900Z,923.47
2022-10-23T00:59:51.874Z,924.39
2022-10-23T01:00:51.888Z,924.37
2022-10-23T01:01:52.223Z,924.06
2022-10-23T01:02:51.860Z,923.77
2022-10-23T01:03:51.831Z,923.52
2022-10-23T01:04:51.911Z,923.76
2022-10-23T01:05:51.849Z,923.66
2022-10-23T01:06:51.807Z,924.00
2022-10-23T01:07:51.800Z,924.36
2022-10-23T01:08:51.801Z,923.79
2022-10-23T01:09:51.779Z,923.78
2022-10-23T01:10:51.762Z,923.43
2022-10-23T01:11:51.761Z,923.56
2022-10-23T01:12:51.744Z,923.99
2022-10-23T01:13:51.744Z,924.81
2022-10-23T01:14:51.742Z,925.31
2022-10-23T01:15:51.718Z,925.31
2022-10-23T01:16:51.695Z,925.99
2022-10-23T01:17:51.883Z,925.67
2022-10-23T01:18:51.693Z,925.83
2022-10-23T01:19:51.669Z,925.76
2022-10-23T01:20:51.663Z,926.07
2022-10-23T01:21:51.685Z,926.53
2022-10-23T01:22:51.657Z,927.24
2022-10-23T01:23:51.625Z,928.42
2022-10-23T01:24:51.606Z,929.07
2022-10-23T01:25:51.614Z,930.01
2022-10-23T01:26:51.837Z,930.00
2022-10-23T01:27:51.573Z,930.49
2022-10-23T01:28:51.583Z,930.98
2022-10-23T01:29:51.564Z,931.13
2022-10-23T01:30:51.526Z,931.56
2022-10-23T01:31:51.559Z,932.20
2022-10-23T01:32:51.516Z,932.80
2022-10-23T01:33:51.530Z,933.16
2022-10-23T01:34:51.498Z,934.13
2022-10-23T01:35:51.578Z,934.41
2022-10-23T01:36:51.481Z,933.88
2022-10-23T01:37:51.467Z,934.51
2022-10-23T01:38:51.521Z,934.09
2022-10-23T01:39:51.456Z,933.51
2022-10-23T01:40:51.446Z,934.19
2022-10-23T01:41:51.415Z,933.18
2022-10-23T01:42:51.418Z,932.81
2022-10-23T01:43:51.404Z,932.41
2022-10-23T01:44:51.411Z,932.32
2022-10-23T01:45:52.127Z,933.09
2022-10-23T01:46:51.376Z,932.42
2022-10-23T01:47:51.367Z,932.31
2022-10-23T01:48:51.354Z,932.35
2022-10-23T01:49:51.356Z,932.21
2022-10-23T01:50:51.346Z,932.19
2022-10-23T01:51:51.307Z,931.93
2022-10-23T01:52:51.327Z,932.21
2022-10-23T01:53:51.289Z,931.29
2022-10-23T01:54:51.343Z,931.42
2022-10-23T01:55:51.349Z,931.05
2022-10-23T01:56:51.532Z,930.67
2022-10-23T01:57:51.239Z,931.00
2022-10-23T01:58:51.228Z,931.22
2022-10-23T01:59:51.228Z,931.59
2022-10-23T02:00:51.210Z,931.90
2022-10-23T02:01:51.337Z,931.58
2022-10-23T02:02:51.196Z,931.01
2022-10-23T02:03:51.196Z,930.64
2022-10-23T02:04:51.240Z,930.75
2022-10-23T02:05:51.489Z,930.61
2022-10-23T02:06:51.155Z,930.10
2022-10-23T02:07:51.138Z,929.85
2022-10-23T02:08:51.127Z,929.73
2022-10-23T02:09:51.129Z,930.12
2022-10-23T02:10:51.122Z,930.86
2022-10-23T02:11:51.089Z,930.53
2022-10-23T02:12:51.080Z,930.04
2022-10-23T02:13:51.080Z,929.87
2022-10-23T02:14:51.074Z,929.33
2022-10-23T02:15:51.098Z,928.80
2022-10-23T02:16:51.040Z,928.75
2022-10-23T02:17:51.021Z,928.39
2022-10-23T02:18:51.011Z,928.94
2022-10-23T02:19:51.005Z,928.88
2022-10-23T02:20:51.023Z,928.52
2022-10-23T02:21:50.994Z,928.53
2022-10-23T02:22:50.966Z,928.46
2022-10-23T02:23:53.713Z,928.35
2022-10-23T02:24:51.941Z,928.34
2022-10-23T02:25:50.975Z,927.90
2022-10-23T02:26:50.951Z,927.21
2022-10-23T02:27:50.913Z,927.30
2022-10-23T02:28:50.901Z,927.29
2022-10-23T02:29:50.893Z,926.98
2022-10-23T02:30:50.893Z,926.72
2022-10-23T02:31:50.866Z,926.70
2022-10-23T02:32:50.849Z,926.56
2022-10-23T02:33:50.846Z,926.48
2022-10-23T02:34:50.876Z,926.90
2022-10-23T02:35:50.844Z,926.22
2022-10-23T02:36:50.812Z,925.56
2022-10-23T02:37:50.801Z,925.70
2022-10-23T02:38:50.785Z,926.28
2022-10-23T02:39:50.799Z,926.36
2022-10-23T02:40:50.803Z,926.24
2022-10-23T02:41:50.745Z,925.71
2022-10-23T02:42:50.753Z,925.78
2022-10-23T02:43:50.738Z,926.06
2022-10-23T02:44:50.750Z,925.98
2022-10-23T02:45:50.785Z,925.95
2022-10-23T02:46:50.707Z,925.74
2022-10-23T02:47:50.953Z,925.63
2022-10-23T02:48:50.676Z,925.57
2022-10-23T02:49:50.667Z,925.14
2022-10-23T02:50:50.674Z,924.90
2022-10-23T02:51:50.648Z,924.92
2022-10-23T02:52:50.636Z,924.99
2022-10-23T02:53:50.665Z,925.24
2022-10-23T02:54:50.623Z,925.24
2022-10-23T02:55:50.645Z,925.17
2022-10-23T02:56:50.863Z,925.66
2022-10-23T02:57:50.587Z,925.85
2022-10-23T02:58:50.568Z,925.81
2022-10-23T02:59:50.567Z,925.87
2022-10-23T03:00:50.558Z,925.57
2022-10-23T03:01:50.628Z,925.59
2022-10-23T03:02:50.518Z,925.67
2022-10-23T03:03:50.520Z,925.43
2022-10-23T03:04:50.511Z,924.95
2022-10-23T03:05:50.728Z,924.39
2022-10-23T03:06:50.477Z,923.34
2022-10-23T03:07:50.488Z,921.48
2022-10-23T03:08:50.450Z,921.15
2022-10-23T03:09:50.458Z,921.12
2022-10-23T03:10:50.461Z,921.82
2022-10-23T03:11:50.433Z,921.15
2022-10-23T03:12:50.407Z,921.03
2022-10-23T03:13:50.406Z,920.98
2022-10-23T03:14:50.390Z,921.13
2022-10-23T03:15:50.391Z,920.75
2022-10-23T03:16:50.370Z,920.50
2022-10-23T03:17:50.368Z,920.42
2022-10-23T03:18:50.357Z,920.49
2022-10-23T03:19:50.338Z,920.89
2022-10-23T03:20:50.370Z,920.13
2022-10-23T03:21:50.310Z,918.25
2022-10-23T03:22:50.305Z,918.08
2022-10-23T03:23:50.321Z,918.36
2022-10-23T03:24:50.281Z,918.91
2022-10-23T03:25:50.468Z,919.30
2022-10-23T03:26:50.250Z,919.28
2022-10-23T03:27:50.262Z,919.23
2022-10-23T03:28:50.272Z,919.46
2022-10-23T03:29:50.231Z,919.63
2022-10-23T03:30:50.222Z,919.59
2022-10-23T03:31:50.228Z,919.88
2022-10-23T03:32:50.182Z,920.37
2022-10-23T03:33:50.195Z,920.04
2022-10-23T03:34:50.176Z,920.11
2022-10-23T03:35:50.186Z,919.51
2022-10-23T03:36:50.179Z,919.75
2022-10-23T03:37:50.147Z,919.37
2022-10-23T03:38:50.131Z,919.64
2022-10-23T03:39:50.132Z,920.06
2022-10-23T03:40:50.142Z,919.88
2022-10-23T03:41:50.100Z,919.74
2022-10-23T03:42:50.081Z,919.57
2022-10-23T03:43:50.075Z,919.40
2022-10-23T03:44:50.335Z,919.84
2022-10-23T03:45:50.064Z,919.81
2022-10-23T03:46:50.038Z,919.17
2022-10-23T03:47:50.031Z,919.82
2022-10-23T03:48:50.023Z,920.85
2022-10-23T03:49:50.017Z,921.56
2022-10-23T03:50:50.004Z,922.00
2022-10-23T03:51:49.984Z,922.43
2022-10-23T03:52:49.992Z,922.83
2022-10-23T03:53:49.952Z,923.62
2022-10-23T03:54:49.956Z,923.31
2022-10-23T03:55:49.944Z,923.56
2022-10-23T03:56:52.521Z,923.81
2022-10-23T03:57:50.926Z,924.21
2022-10-23T03:58:49.912Z,923.89
2022-10-23T03:59:49.898Z,924.30
2022-10-23T04:00:49.923Z,923.66
2022-10-23T04:01:49.965Z,924.00
2022-10-23T04:02:49.865Z,924.25
2022-10-23T04:03:49.846Z,924.58
2022-10-23T04:04:50.130Z,924.94
2022-10-23T04:05:52.226Z,925.90
2022-10-23T04:06:49.814Z,926.37
2022-10-23T04:07:50.079Z,926.98
2022-10-23T04:08:49.831Z,927.47
2022-10-23T04:09:49.776Z,927.93
2022-10-23T04:10:49.776Z,927.70
2022-10-23T04:11:49.770Z,926.71
2022-10-23T04:12:49.756Z,926.43
2022-10-23T04:13:49.747Z,926.18
2022-10-23T04:14:49.748Z,925.72
2022-10-23T04:15:49.735Z,925.69
2022-10-23T04:16:49.710Z,925.84
2022-10-23T04:17:49.710Z,924.51
2022-10-23T04:18:49.687Z,922.90
2022-10-23T04:19:49.670Z,921.86
2022-10-23T04:20:49.687Z,921.18
2022-10-23T04:21:49.662Z,920.04
2022-10-23T04:22:49.649Z,919.21
2022-10-23T04:23:49.630Z,918.54
2022-10-23T04:24:49.631Z,918.24
2022-10-23T04:25:49.621Z,918.14
2022-10-23T04:26:49.619Z,918.31
2022-10-23T04:27:49.589Z,918.37
2022-10-23T04:28:49.580Z,918.22
2022-10-23T04:29:49.578Z,917.27
2022-10-23T04:30:49.677Z,916.96
2022-10-23T04:31:49.552Z,917.33
2022-10-23T04:32:49.531Z,917.38
2022-10-23T04:33:49.518Z,917.40
2022-10-23T04:34:49.514Z,916.78
2022-10-23T04:35:49.511Z,915.74
2022-10-23T04:36:49.483Z,915.11
2022-10-23T04:37:49.483Z,915.84
2022-10-23T04:38:49.470Z,915.60
2022-10-23T04:39:49.461Z,914.31
2022-10-23T04:40:49.484Z,914.20
2022-10-23T04:41:49.431Z,913.88
2022-10-23T04:42:49.430Z,913.86
2022-10-23T04:43:49.421Z,914.57
2022-10-23T04:44:49.402Z,914.23
2022-10-23T04:45:49.401Z,914.58
2022-10-23T04:46:49.394Z,914.67
2022-10-23T04:47:49.355Z,914.26
2022-10-23T04:48:49.359Z,914.43
2022-10-23T04:49:49.627Z,914.79
2022-10-23T04:50:49.348Z,914.53
2022-10-23T04:51:49.327Z,914.95
2022-10-23T04:52:49.313Z,914.93
2022-10-23T04:53:49.302Z,915.35
2022-10-23T04:54:49.272Z,915.45
2022-10-23T04:55:49.302Z,915.19
2022-10-23T04:56:49.266Z,915.93
2022-10-23T04:57:49.277Z,916.52
2022-10-23T04:58:49.243Z,917.25
2022-10-23T04:59:49.254Z,917.06
2022-10-23T05:00:49.267Z,917.08
2022-10-23T05:01:49.246Z,917.14
2022-10-23T05:02:49.210Z,917.66
2022-10-23T05:03:49.182Z,918.18
2022-10-23T05:04:49.162Z,918.99
2022-10-23T05:05:49.184Z,919.52
2022-10-23T05:06:49.226Z,919.90
2022-10-23T05:07:49.156Z,920.25
2022-10-23T05:08:49.154Z,920.02
2022-10-23T05:09:49.395Z,920.83
2022-10-23T05:10:49.141Z,920.81
2022-10-23T05:11:49.094Z,921.09
2022-10-23T05:12:49.103Z,920.82
2022-10-23T05:13:49.070Z,921.14
2022-10-23T05:14:49.070Z,920.75
2022-10-23T05:15:49.107Z,920.71
2022-10-23T05:16:49.051Z,921.58
2022-10-23T05:17:49.027Z,922.24
2022-10-23T05:18:49.040Z,922.95
2022-10-23T05:19:49.007Z,923.45
2022-10-23T05:20:49.015Z,923.78
2022-10-23T05:21:48.996Z,924.42
2022-10-23T05:22:48.990Z,924.41
2022-10-23T05:23:49.039Z,924.90
2022-10-23T05:24:50.566Z,925.49
2022-10-23T05:25:48.973Z,926.76
2022-10-23T05:26:48.927Z,927.18
2022-10-23T05:27:48.930Z,927.76
2022-10-23T05:28:48.929Z,928.40
2022-10-23T05:29:48.888Z,929.57
2022-10-23T05:30:48.907Z,930.58
2022-10-23T05:31:48.868Z,931.22
2022-10-23T05:32:48.879Z,931.09
2022-10-23T05:33:48.878Z,931.07
2022-10-23T05:34:48.838Z,931.15
2022-10-23T05:35:48.865Z,931.48
2022-10-23T05:36:48.841Z,931.94
2022-10-23T05:37:48.818Z,931.36
2022-10-23T05:38:48.800Z,932.03
2022-10-23T05:39:48.802Z,933.47
2022-10-23T05:40:49.040Z,934.16
2022-10-23T05:41:48.764Z,933.58
2022-10-23T05:42:49.006Z,933.62
2022-10-23T05:43:49.009Z,934.62
2022-10-23T05:44:48.739Z,935.04
2022-10-23T05:45:48.750Z,935.32
2022-10-23T05:46:48.720Z,935.33
2022-10-23T05:47:48.711Z,934.14
2022-10-23T05:48:48.791Z,934.95
2022-10-23T05:49:48.690Z,935.40
2022-10-23T05:50:48.674Z,936.58
2022-10-23T05:51:48.663Z,937.50
2022-10-23T05:52:48.650Z,938.77
2022-10-23T05:53:48.644Z,939.26
2022-10-23T05:54:48.626Z,938.94
2022-10-23T05:55:48.618Z,937.53
2022-10-23T05:56:48.612Z,937.31
2022-10-23T05:57:48.583Z,937.48
2022-10-23T05:58:48.581Z,938.58
2022-10-23T05:59:48.858Z,940.12
2022-10-23T06:00:48.571Z,940.25
2022-10-23T06:01:48.665Z,940.87
2022-10-23T06:02:48.544Z,940.83
2022-10-23T06:03:48.525Z,941.24
2022-10-23T06:04:48.503Z,941.92
2022-10-23T06:05:48.515Z,941.80
2022-10-23T06:06:48.503Z,941.78
2022-10-23T06:07:48.472Z,942.24
2022-10-23T06:08:48.484Z,943.47
2022-10-23T06:09:48.462Z,944.96
2022-10-23T06:10:48.463Z,946.44
2022-10-23T06:11:48.423Z,946.50
2022-10-23T06:12:48.445Z,947.10
2022-10-23T06:13:48.483Z,948.17
2022-10-23T06:14:48.404Z,949.87
2022-10-23T06:15:48.400Z,951.34
2022-10-23T06:16:48.395Z,952.74
2022-10-23T06:17:48.374Z,954.59
2022-10-23T06:18:48.355Z,955.54
2022-10-23T06:19:48.365Z,957.52
2022-10-23T06:20:48.356Z,958.22
2022-10-23T06:21:48.339Z,959.31
2022-10-23T06:22:48.345Z,960.04
2022-10-23T06:23:48.328Z,961.07
2022-10-23T06:24:48.306Z,961.26
2022-10-23T06:25:48.287Z,961.61
2022-10-23T06:26:48.280Z,962.03
2022-10-23T06:27:48.265Z,962.48
2022-10-23T06:28:48.274Z,962.74
2022-10-23T06:29:48.246Z,961.76
2022-10-23T06:30:48.256Z,961.91
2022-10-23T06:31:48.204Z,963.67
2022-10-23T06:32:48.195Z,965.10
2022-10-23T06:33:48.186Z,966.04
2022-10-23T06:34:48.176Z,966.87
2022-10-23T06:35:48.202Z,967.83
2022-10-23T06:36:48.159Z,969.09
2022-10-23T06:37:48.145Z,970.34
2022-10-23T06:38:48.202Z,970.91
2022-10-23T06:39:48.122Z,970.59
2022-10-23T06:40:48.112Z,970.75
2022-10-23T06:41:48.128Z,971.37
2022-10-23T06:42:48.079Z,970.46
2022-10-23T06:43:48.090Z,968.73
2022-10-23T06:44:48.068Z,967.75
2022-10-23T06:45:48.072Z,966.94
2022-10-23T06:46:48.310Z,966.96
2022-10-23T06:47:48.039Z,966.14
2022-10-23T06:48:48.020Z,966.42
2022-10-23T06:49:47.999Z,965.90
2022-10-23T06:50:47.997Z,967.62
2022-10-23T06:51:47.999Z,968.04
2022-10-23T06:52:48.112Z,967.88
2022-10-23T06:53:47.967Z,966.66
2022-10-23T06:54:47.958Z,966.92
2022-10-23T06:55:50.190Z,966.63
2022-10-23T06:56:47.939Z,966.23
2022-10-23T06:57:47.941Z,966.08
2022-10-23T06:58:47.897Z,965.93
2022-10-23T06:59:47.900Z,964.61
2022-10-23T07:00:47.933Z,963.74
2022-10-23T07:01:48.064Z,964.01
2022-10-23T07:02:47.859Z,965.26
2022-10-23T07:03:47.866Z,964.15
2022-10-23T07:04:47.851Z,961.21
2022-10-23T07:05:47.841Z,959.19
2022-10-23T07:06:47.852Z,958.09
2022-10-23T07:07:47.894Z,957.07
2022-10-23T07:08:47.800Z,954.80
2022-10-23T07:09:47.802Z,952.61
2022-10-23T07:10:47.793Z,950.17
2022-10-23T07:11:47.770Z,947.44
2022-10-23T07:12:47.761Z,945.03
2022-10-23T07:13:47.752Z,943.06
2022-10-23T07:14:47.732Z,940.29
2022-10-23T07:15:47.722Z,937.90
2022-10-23T07:16:47.713Z,936.36
2022-10-23T07:17:47.830Z,934.54
2022-10-23T07:18:47.768Z,932.63
2022-10-23T07:19:47.692Z,930.96
2022-10-23T07:20:47.712Z,929.85
2022-10-23T07:21:47.894Z,928.08
2022-10-23T07:22:47.653Z,926.56
2022-10-23T07:23:47.632Z,925.42
2022-10-23T07:24:47.640Z,925.70
2022-10-23T07:25:47.608Z,926.68
2022-10-23T07:26:47.640Z,930.06
2022-10-23T07:27:47.765Z,933.62
2022-10-23T07:28:47.583Z,932.93
2022-10-23T07:29:47.583Z,933.48
2022-10-23T07:30:47.579Z,934.15
2022-10-23T07:31:47.585Z,941.41
2022-10-23T07:32:47.543Z,943.54
2022-10-23T07:33:47.524Z,941.03
2022-10-23T07:34:47.517Z,944.65
2022-10-23T07:35:47.512Z,942.82
2022-10-23T07:36:47.491Z,940.39
2022-10-23T07:37:47.528Z,932.34
2022-10-23T07:38:47.952Z,937.98
2022-10-23T07:39:48.472Z,934.99
2022-10-23T07:40:47.455Z,935.31
2022-10-23T07:41:47.427Z,934.16
2022-10-23T07:42:47.426Z,932.15
2022-10-23T07:43:47.434Z,926.81
2022-10-23T07:44:47.388Z,935.21
2022-10-23T07:45:47.436Z,932.70
2022-10-23T07:46:47.378Z,937.05
2022-10-23T07:47:47.479Z,924.49
2022-10-23T07:48:47.397Z,906.67
2022-10-23T07:49:47.480Z,889.93
2022-10-23T07:50:47.330Z,901.80
2022-10-23T07:51:50.514Z,891.93
2022-10-23T07:52:47.453Z,904.12
2022-10-23T07:53:47.296Z,919.33
2022-10-23T07:54:47.276Z,901.14
2022-10-23T07:55:47.299Z,890.11
2022-10-23T07:56:48.128Z,883.27
2022-10-23T07:57:47.248Z,905.78
2022-10-23T07:58:47.289Z,933.16
2022-10-23T07:59:47.239Z,932.17
2022-10-23T08:00:47.233Z,933.26
2022-10-23T08:01:47.308Z,917.18
2022-10-23T08:02:47.221Z,926.11
2022-10-23T08:03:47.187Z,928.80
2022-10-23T08:04:47.151Z,934.42
2022-10-23T08:05:47.160Z,942.21
2022-10-23T08:06:47.178Z,951.10
2022-10-23T08:07:47.222Z,957.05
2022-10-23T08:08:47.136Z,957.18
2022-10-23T08:09:47.110Z,959.03
2022-10-23T08:10:47.122Z,915.56
2022-10-23T08:11:47.119Z,921.16
2022-10-23T08:12:47.072Z,930.25
2022-10-23T08:13:47.053Z,949.69
2022-10-23T08:14:47.118Z,941.60
2022-10-23T08:15:47.072Z,944.60
2022-10-23T08:16:47.051Z,950.87
2022-10-23T08:17:47.022Z,950.40
2022-10-23T08:18:47.024Z,963.83
2022-10-23T08:19:47.011Z,970.42
2022-10-23T08:20:47.024Z,967.87
2022-10-23T08:21:47.205Z,956.50
2022-10-23T08:22:46.963Z,980.22
2022-10-23T08:23:46.933Z,981.20
2022-10-23T08:24:46.967Z,986.62
2022-10-23T08:25:46.979Z,977.16
2022-10-23T08:26:46.925Z,987.86
2022-10-23T08:27:46.925Z,987.01
2022-10-23T08:28:46.947Z,987.85
2022-10-23T08:29:46.882Z,979.15
2022-10-23T08:30:46.925Z,989.11
2022-10-23T08:31:46.857Z,993.29
2022-10-23T08:32:46.857Z,992.82
2022-10-23T08:33:46.865Z,996.36
2022-10-23T08:34:46.835Z,991.17
2022-10-23T08:35:47.035Z,994.04
2022-10-23T08:36:47.348Z,996.87
2022-10-23T08:37:46.869Z,995.56
2022-10-23T08:38:46.856Z,993.95
2022-10-23T08:39:50.084Z,987.09
2022-10-23T08:40:47.772Z,987.07
2022-10-23T08:41:46.776Z,982.00
2022-10-23T08:42:46.740Z,976.21
2022-10-23T08:43:46.725Z,971.25
2022-10-23T08:44:46.749Z,964.37
2022-10-23T08:45:46.699Z,930.15
2022-10-23T08:46:46.689Z,948.54
2022-10-23T08:47:46.689Z,922.54
2022-10-23T08:48:46.702Z,957.84
2022-10-23T08:49:47.678Z,951.35
2022-10-23T08:50:46.653Z,954.02
2022-10-23T08:51:46.658Z,954.88
2022-10-23T08:52:46.944Z,957.98
2022-10-23T08:53:46.629Z,943.51
2022-10-23T08:54:46.600Z,922.17
2022-10-23T08:55:46.611Z,922.70
2022-10-23T08:56:46.602Z,935.04
2022-10-23T08:57:46.569Z,956.06
2022-10-23T08:58:46.680Z,971.74
2022-10-23T08:59:46.560Z,940.24
2022-10-23T09:00:46.670Z,954.07
2022-10-23T09:01:46.741Z,957.64
2022-10-23T09:02:46.805Z,966.18
2022-10-23T09:03:46.500Z,968.42
2022-10-23T09:04:46.500Z,971.01
2022-10-23T09:05:46.492Z,971.45
2022-10-23T09:06:46.471Z,967.01
2022-10-23T09:07:46.574Z,964.28
2022-10-23T09:08:46.454Z,957.53
2022-10-23T09:09:46.441Z,961.75
2022-10-23T09:10:48.153Z,957.44
2022-10-23T09:11:46.497Z,951.82
2022-10-23T09:12:46.414Z,952.54
2022-10-23T09:13:46.394Z,950.93
2022-10-23T09:14:46.376Z,951.85
2022-10-23T09:15:46.405Z,947.00
2022-10-23T09:16:46.373Z,947.56
2022-10-23T09:17:46.851Z,948.34
2022-10-23T09:18:46.644Z,932.49
2022-10-23T09:19:46.333Z,942.33
2022-10-23T09:20:46.363Z,935.67
2022-10-23T09:21:46.325Z,937.33
2022-10-23T09:22:46.306Z,933.92
2022-10-23T09:23:46.295Z,910.29
2022-10-23T09:24:47.658Z,899.98
2022-10-23T09:25:46.274Z,894.97
2022-10-23T09:26:46.242Z,898.71
2022-10-23T09:27:46.253Z,902.89
2022-10-23T09:28:46.247Z,908.03
2022-10-23T09:29:46.223Z,915.49
2022-10-23T09:30:46.224Z,926.13
2022-10-23T09:31:46.226Z,935.59
2022-10-23T09:32:46.174Z,926.82
2022-10-23T09:33:46.177Z,931.92
2022-10-23T09:34:46.156Z,921.83
2022-10-23T09:35:46.197Z,920.99
2022-10-23T09:36:46.171Z,925.16
2022-10-23T09:37:46.204Z,929.33
2022-10-23T09:38:46.098Z,932.25
2022-10-23T09:39:46.107Z,935.57
2022-10-23T09:40:46.099Z,937.81
2022-10-23T09:41:46.068Z,940.02
2022-10-23T09:42:46.070Z,941.35
2022-10-23T09:43:46.250Z,944.32
2022-10-23T09:44:46.029Z,946.06
2022-10-23T09:45:46.089Z,946.70
2022-10-23T09:46:46.173Z,947.34
2022-10-23T09:47:46.068Z,947.56
2022-10-23T09:48:46.016Z,948.72
2022-10-23T09:49:46.106Z,950.42
2022-10-23T09:50:47.020Z,953.24
2022-10-23T09:51:45.944Z,956.60
2022-10-23T09:52:45.992Z,957.60
2022-10-23T09:53:45.933Z,959.74
2022-10-23T09:54:46.045Z,964.07
2022-10-23T09:55:45.912Z,964.40
2022-10-23T09:56:45.900Z,961.87
2022-10-23T09:57:46.208Z,964.38
2022-10-23T09:58:45.920Z,971.31
2022-10-23T09:59:45.843Z,961.46
2022-10-23T10:00:45.900Z,962.10
2022-10-23T10:01:45.892Z,961.96
2022-10-23T10:02:47.041Z,958.76
2022-10-23T10:03:45.804Z,957.63
2022-10-23T10:04:45.798Z,956.81
2022-10-23T10:05:45.818Z,957.20
2022-10-23T10:06:45.789Z,958.48
2022-10-23T10:07:45.958Z,959.70
2022-10-23T10:08:45.753Z,957.67
2022-10-23T10:09:45.779Z,956.09
2022-10-23T10:10:45.735Z,956.75
2022-10-23T10:11:45.704Z,957.12
2022-10-23T10:12:45.723Z,956.51
2022-10-23T10:13:45.713Z,954.09
2022-10-23T10:14:45.672Z,950.53
2022-10-23T10:15:45.687Z,946.81
2022-10-23T10:16:45.663Z,941.91
2022-10-23T10:17:46.002Z,937.60
2022-10-23T10:18:45.635Z,932.55
2022-10-23T10:19:45.878Z,927.86
2022-10-23T10:20:45.616Z,923.16
2022-10-23T10:21:45.595Z,919.71
2022-10-23T10:22:45.602Z,915.17
2022-10-23T10:23:45.577Z,912.42
2022-10-23T10:24:45.548Z,908.92
2022-10-23T10:25:49.761Z,902.71
2022-10-23T10:26:46.549Z,895.74
2022-10-23T10:27:45.873Z,890.44
2022-10-23T10:28:45.519Z,884.64
2022-10-23T10:29:45.562Z,877.81
2022-10-23T10:30:45.499Z,871.96
2022-10-23T10:31:49.337Z,864.89
2022-10-23T10:32:46.480Z,858.28
2022-10-23T10:33:45.450Z,857.15
2022-10-23T10:34:45.450Z,862.19
2022-10-23T10:35:45.449Z,872.01
2022-10-23T10:36:45.412Z,882.36
2022-10-23T10:37:47.428Z,891.38
2022-10-23T10:38:45.669Z,896.57
2022-10-23T10:39:45.666Z,903.11
2022-10-23T10:40:45.390Z,905.84
2022-10-23T10:41:45.367Z,904.95
2022-10-23T10:42:45.371Z,905.36
2022-10-23T10:43:45.331Z,898.92
2022-10-23T10:44:45.323Z,885.48
2022-10-23T10:45:45.327Z,867.81
2022-10-23T10:46:45.301Z,846.17
2022-10-23T10:47:45.541Z,826.41
2022-10-23T10:48:45.291Z,809.64
2022-10-23T10:49:45.283Z,798.71
2022-10-23T10:50:45.293Z,796.07
2022-10-23T10:51:45.263Z,796.10
2022-10-23T10:52:48.363Z,794.33
2022-10-23T10:53:45.235Z,793.24
2022-10-23T10:54:45.224Z,790.78
2022-10-23T10:55:45.228Z,787.46
2022-10-23T10:56:45.209Z,781.62
2022-10-23T10:57:45.456Z,776.33
2022-10-23T10:58:45.179Z,772.36
2022-10-23T10:59:45.164Z,770.52
2022-10-23T11:00:45.214Z,769.46
2022-10-23T11:01:45.277Z,769.73
2022-10-23T11:02:45.174Z,769.36
2022-10-23T11:03:45.206Z,769.21
2022-10-23T11:04:45.124Z,770.49
2022-10-23T11:05:45.148Z,771.11
2022-10-23T11:06:45.129Z,773.27
2022-10-23T11:07:45.360Z,773.25
2022-10-23T11:08:57.181Z,773.18
2022-10-23T11:09:46.065Z,773.60
2022-10-23T11:10:45.040Z,775.43
2022-10-23T11:11:45.066Z,778.44
2022-10-23T11:12:45.015Z,781.48
2022-10-23T11:13:45.007Z,784.87
2022-10-23T11:14:45.012Z,788.59
2022-10-23T11:15:45.052Z,792.69
2022-10-23T11:16:44.972Z,796.88
2022-10-23T11:17:45.410Z,803.03
2022-10-23T11:18:44.958Z,811.47
2022-10-23T11:19:44.968Z,822.55
2022-10-23T11:20:44.930Z,839.29
2022-10-23T11:21:44.921Z,865.14
2022-10-23T11:22:45.187Z,888.19
2022-10-23T11:23:44.901Z,906.16
2022-10-23T11:24:48.175Z,919.20
2022-10-23T11:25:44.898Z,927.21
2022-10-23T11:26:44.861Z,931.90
2022-10-23T11:27:45.314Z,936.09
2022-10-23T11:28:44.900Z,943.12
2022-10-23T11:29:44.842Z,950.58
2022-10-23T11:30:44.811Z,958.18
2022-10-23T11:31:44.823Z,965.73
2022-10-23T11:32:44.802Z,970.77
2022-10-23T11:33:44.871Z,973.40
2022-10-23T11:34:44.808Z,976.61
2022-10-23T11:35:44.766Z,977.52
2022-10-23T11:36:44.743Z,977.24
2022-10-23T11:37:44.955Z,979.20
2022-10-23T11:38:44.723Z,979.68
2022-10-23T11:39:44.733Z,978.77
2022-10-23T11:40:44.744Z,978.63
2022-10-23T11:41:44.967Z,979.48
2022-10-23T11:42:44.976Z,981.14
2022-10-23T11:43:44.674Z,983.43
2022-10-23T11:44:44.715Z,978.40
2022-10-23T11:45:44.945Z,976.02
2022-10-23T11:46:44.644Z,976.64
2022-10-23T11:47:44.631Z,982.27
2022-10-23T11:48:44.625Z,975.37
2022-10-23T11:49:44.607Z,973.31
2022-10-23T11:50:44.587Z,973.56
2022-10-23T11:51:44.575Z,974.85
2022-10-23T11:52:50.749Z,974.63
2022-10-23T11:53:45.547Z,974.76
2022-10-23T11:54:44.836Z,976.14
2022-10-23T11:55:44.552Z,976.83
2022-10-23T11:56:44.653Z,976.22
2022-10-23T11:57:45.448Z,976.80
2022-10-23T11:58:44.892Z,973.22
2022-10-23T11:59:44.507Z,969.99
2022-10-23T12:00:44.639Z,967.53
2022-10-23T12:01:45.333Z,966.30
2022-10-23T12:02:44.784Z,965.19
2022-10-23T12:03:44.878Z,964.91
2022-10-23T12:04:44.818Z,961.75
2022-10-23T12:05:44.441Z,961.05
2022-10-23T12:06:44.426Z,961.06
2022-10-23T12:07:44.552Z,969.00
2022-10-23T12:08:45.469Z,970.63
2022-10-23T12:09:45.310Z,967.29
2022-10-23T12:10:44.359Z,965.87
2022-10-23T12:11:44.353Z,964.00
2022-10-23T12:12:44.351Z,961.80
2022-10-23T12:13:44.321Z,958.72
2022-10-23T12:14:44.354Z,956.93
2022-10-23T12:15:44.598Z,955.71
2022-10-23T12:16:44.313Z,952.59
2022-10-23T12:17:44.506Z,948.34
2022-10-23T12:18:44.273Z,946.98
2022-10-23T12:19:44.281Z,946.66
2022-10-23T12:20:44.243Z,947.87
2022-10-23T12:21:44.233Z,945.87
2022-10-23T12:22:44.225Z,944.75
2022-10-23T12:23:47.274Z,946.45
2022-10-23T12:24:44.213Z,942.43
2022-10-23T12:25:44.216Z,942.70
2022-10-23T12:26:44.177Z,942.15
2022-10-23T12:27:45.063Z,945.29
2022-10-23T12:28:44.167Z,947.99
2022-10-23T12:29:44.485Z,947.42